Nearby Meteorological Terminal Aviation Routine Weather Reports (METAR)
KAVP - Avoca/Wilkes B., Pennsylvania, USA
Distance from station: NE 13mi, 20km
Updated: Tue, 12-Nov-2019 5:34am EST
Light snow, Mist, Overcast
Light snow, Mist, Overcast
 Wind from WNW
Wind: WNW 9 mph , 15 km/h
Temperature: 30°F , -1°C
Wind Chill: 22°F , -6°C
Dew Point: 27°F , -3°C
Humidity: 86%
Barometer: 29.82 inHg , 1009.8 hPa
Summary: Light snow, Mist
Clouds: Overcast
Visibility: 3/4 mile , 1.2 km
Cloud details: Overcast 1200 ft
2019/11/12 10:34 KAVP 121034Z 30008KT 3/4SM R04/P6000FT -SN BR OVC012 M01/M03 A2982 RMK AO2 P0004 T10061028 $
KMPO - Mt. Pocono, Pennsylvania, USA
Distance from station: ESE 28mi, 45km
Updated: Tue, 12-Nov-2019 4:53am EST
Light rain, Overcast
Light rain, Overcast
 Wind from WNW
Wind: WNW 13 mph , 20 km/h
Temperature: 39°F , 4°C
Wind Chill: 31°F , -1°C
Dew Point: 39°F , 4°C
Humidity: 100%
Barometer: 29.69 inHg , 1005.4 hPa
Summary: Light rain
Clouds: Overcast
Visibility: 7 miles , 11 km
Cloud details: Overcast 600 ft
2019/11/12 09:53 KMPO 120953Z AUTO 29011KT 7SM -RA OVC006 04/04 A2969 RMK AO2 CIG 004V010 SLP062 P0003 T00440044 $
 
KABE - Allentown, Pennsylvania, USA
Distance from station: SSE 46mi, 74km
Updated: Tue, 12-Nov-2019 5:35am EST
Light rain, Overcast
Light rain, Overcast
 Wind from WSW
Wind: WSW 6 mph , 9 km/h
Temperature: 52°F , 11°C
Dew Point: 46°F , 8°C
Humidity: 82%
Barometer: 29.72 inHg , 1006.4 hPa
Summary: Light rain
Clouds: Overcast
Visibility: 6 miles , 10 km
Cloud details: Mostly cloudy 1800 ft
Mostly cloudy 3200 ft
Overcast 6000 ft
2019/11/12 10:35 KABE 121035Z 25005KT 6SM -RA BKN018 BKN032 OVC060 11/08 A2972 RMK AO2 P0001 T01060078
KXLL - Allentown Queen, Pennsylvania, USA
Distance from station: SSE 50mi, 81km
Updated: Tue, 12-Nov-2019 5:35am EST
Light rain, Overcast
Light rain, Overcast
 Wind from WSW
Wind: WSW 7 mph , 11 km/h
Temperature: 50°F , 10°C
Wind Chill: 47°F , 8°C
Dew Point: 46°F , 8°C
Humidity: 88%
Barometer: 29.74 inHg , 1007.1 hPa
Summary: Light rain
Clouds: Overcast
Visibility: 10 miles , 16 km
Cloud details: Partly cloudy 2000 ft
Overcast 2900 ft
2019/11/12 10:35 KXLL 121035Z AUTO 24006KT 10SM -RA SCT020 OVC029 10/08 A2974 RMK AO2
 
KIPT - Williamsport, Pennsylvania, USA
Distance from station: W 52mi, 84km
Updated: Tue, 12-Nov-2019 5:36am EST
Light snow, Mist, Overcast
Light snow, Mist, Overcast
 Wind from W
Wind: W 10 mph , 17 km/h
Temperature: 30°F , -1°C
Wind Chill: 21°F , -6°C
Dew Point: 27°F , -3°C
Humidity: 86%
Barometer: 29.87 inHg , 1011.5 hPa
Summary: Light snow, Mist
Clouds: Overcast
Visibility: 5 miles , 8 km
Cloud details: Partly cloudy 2400 ft
Mostly cloudy 3700 ft
Overcast 9500 ft
2019/11/12 10:36 KIPT 121036Z AUTO 28009KT 5SM -SN BR SCT024 BKN037 OVC095 M01/M03 A2987 RMK AO2 P0000 T10061028
KSEG - Selinsgrove, Pennsylvania, USA
Distance from station: WSW 57mi, 92km
Updated: Tue, 12-Nov-2019 5:30am EST
Light snow, Mist, Overcast
Light snow, Mist, Overcast
 Wind from N
Wind: N 10 mph , 17 km/h
Temperature: 34°F , 1°C
Wind Chill: 26°F , -3°C
Dew Point: 30°F , -1°C
Humidity: 87%
Barometer: 29.87 inHg , 1011.5 hPa
Summary: Light snow, Mist
Clouds: Overcast
Visibility: 5 miles , 8 km
Cloud details: Mostly cloudy 1100 ft
Mostly cloudy 1800 ft
Overcast 4100 ft
2019/11/12 10:30 KSEG 121030Z AUTO 36009KT 5SM -SN BR BKN011 BKN018 OVC041 01/M01 A2987 RMK AO2 UPE11SNB11 P0000 I1000 T00111006
 
KRDG - Reading, Pennsylvania, USA
Distance from station: S 59mi, 95km
Updated: Tue, 12-Nov-2019 4:54am EST
Light rain, Overcast
Light rain, Overcast
 Wind from W
Wind: W 7 mph , 11 km/h
Temperature: 52°F , 11°C
Dew Point: 48°F , 9°C
Humidity: 88%
Barometer: 29.72 inHg , 1006.4 hPa
Summary: Light rain
Clouds: Overcast
Visibility: 9 miles , 14 km
Cloud details: Few Clouds 2100 ft
Mostly cloudy 4100 ft
Overcast 6500 ft
2019/11/12 09:54 KRDG 120954Z 26006KT 9SM -RA FEW021 BKN041 OVC065 11/09 A2972 RMK AO2 SLP069 P0004 T01060094
KUKT - Quakertown Arp, Pennsylvania, USA
Distance from station: SSE 61mi, 98km
Updated: Tue, 12-Nov-2019 5:35am EST
Overcast
Overcast
 Wind from varies
Wind: varies 7 mph , 11 km/h
Temperature: 50°F , 10°C
Wind Chill: 47°F , 8°C
Dew Point: 48°F , 9°C
Humidity: 94%
Barometer: 29.73 inHg , 1006.8 hPa
Clouds: Overcast
Visibility: 8 miles , 13 km
Cloud details: Few Clouds 3000 ft
Mostly cloudy 4200 ft
Overcast 5000 ft
2019/11/12 10:35 KUKT 121035Z AUTO VRB06KT 8SM FEW030 BKN042 OVC050 10/09 A2973 RMK A01
 
K12N - Andover, New Jersey, USA
Distance from station: ESE 63mi, 101km
Updated: Tue, 12-Nov-2019 4:54am EST

 Wind from calm
Wind: Calm
Temperature: 39°F , 4°C
Dew Point: 34°F , 1°C
Humidity: 81%
Barometer: 29.71 inHg , 1006.1 hPa
2019/11/12 09:54 K12N 120954Z AUTO 00000KT 04/01 A2971 RMK AO1 SLP065 T00390006
KMUI - Muir Aaf/Indiant, Pennsylvania, USA
Distance from station: SSW 65mi, 105km
Updated: Tue, 12-Nov-2019 5:26am EST
Rain, Mostly cloudy
Rain, Mostly cloudy
 Wind from NNW
Wind: NNW 17 mph , 28 km/h, Gust: 28 mph , 44 km/h
Temperature: 48°F , 9°C
Wind Chill: 42°F , 6°C
Dew Point: 43°F , 6°C
Humidity: 82%
Barometer: 29.77 inHg , 1008.1 hPa
Summary: Rain
Clouds: Mostly cloudy
Visibility: 10 miles , 16 km
Cloud details: Mostly cloudy 1500 ft
2019/11/12 10:26 KMUI 121026Z AUTO 33015G24KT 10SM RA BKN015 09/06 A2977 RMK AO2 WSHFT 19 BKN V OVC SLP085 $
 
KFWN - Sussex, New Jersey, USA
Distance from station: E 66mi, 107km
Updated: Tue, 12-Nov-2019 4:53am EST
Overcast
Overcast
 Wind from calm
Wind: Calm
Temperature: 36°F , 2°C
Dew Point: 30°F , -1°C
Humidity: 81%
Barometer: 29.72 inHg , 1006.4 hPa
Clouds: Overcast
Visibility: 10 miles , 16 km
Cloud details: Few Clouds 4000 ft
Partly cloudy 5000 ft
Overcast 11000 ft
2019/11/12 09:53 KFWN 120953Z AUTO 00000KT 10SM FEW040 SCT050 OVC110 02/M01 A2972 RMK AO2 RAB39E49 PRESRR SLP067 P0000 T00221011 $
KMSV - Monticello, New York, USA
Distance from station: ENE 67mi, 108km
Updated: Tue, 12-Nov-2019 5:37am EST
Light rain, Overcast
Light rain, Overcast
 Wind from W
Wind: W 13 mph , 20 km/h, Gust: 20 mph , 31 km/h
Temperature: 34°F , 1°C
Wind Chill: 25°F , -4°C
Dew Point: 30°F , -1°C
Humidity: 87%
Barometer: 29.73 inHg , 1006.8 hPa
Summary: Light rain
Clouds: Overcast
Visibility: 10 miles , 16 km
Cloud details: Mostly cloudy 700 ft
Overcast 2000 ft
2019/11/12 10:37 KMSV 121037Z AUTO 28011G17KT 10SM -RA BKN007 OVC020 01/M01 A2973 RMK AO2 CIG 004V010 P0002 FZRANO
 
KBGM - Binghamton, New York, USA
Distance from station: N 69mi, 111km
Updated: Tue, 12-Nov-2019 5:14am EST
Light snow, Mist, Overcast
Light snow, Mist, Overcast
 Wind from NW
Wind: NW 13 mph , 20 km/h
Temperature: 21°F , -6°C
Wind Chill: 8°F , -13°C
Dew Point: 19°F , -7°C
Humidity: 93%
Barometer: 29.79 inHg , 1008.8 hPa
Summary: Light snow, Mist
Clouds: Overcast
Visibility: 1 1/4 miles , 2 km
Cloud details: Few Clouds 900 ft
Overcast 1600 ft
2019/11/12 10:14 KBGM 121014Z AUTO 32011KT 1 1/4SM -SN BR FEW009 OVC016 M06/M07 A2979 RMK AO2 P0001 T10611072
KPTW - Pottstown, Pennsylvania, USA
Distance from station: SSE 71mi, 114km
Updated: Tue, 12-Nov-2019 4:54am EST
Light rain, Overcast
Light rain, Overcast
 Wind from WSW
Wind: WSW 6 mph , 9 km/h
Temperature: 52°F , 11°C
Dew Point: 45°F , 7°C
Humidity: 77%
Barometer: 29.74 inHg , 1007.1 hPa
Summary: Light rain
Clouds: Overcast
Visibility: 5 miles , 8 km
Cloud details: Overcast 7000 ft
2019/11/12 09:54 KPTW 120954Z AUTO 24005KT 5SM -RA OVC070 11/07 A2974 RMK AO2 RAB33 SLP068 P0001 T01060072
 
KDYL - Doylestown, Pennsylvania, USA
Distance from station: SE 74mi, 119km
Updated: Tue, 12-Nov-2019 4:54am EST
Partly cloudy
Partly cloudy
 Wind from WSW
Wind: WSW 3 mph , 6 km/h
Temperature: 54°F , 12°C
Dew Point: 43°F , 6°C
Humidity: 67%
Barometer: 29.70 inHg , 1005.8 hPa
Clouds: Partly cloudy
Visibility: 10 miles , 16 km
Cloud details: Partly cloudy 10000 ft
2019/11/12 09:54 KDYL 120954Z AUTO 24003KT 10SM SCT100 12/06 A2970 RMK AO2 SLP058 T01220056
KSMQ - Somerville, New Jersey, USA
Distance from station: ESE 77mi, 124km
Updated: Tue, 12-Nov-2019 4:53am EST
Clear
Clear
 Wind from calm
Wind: Calm
Temperature: 45°F , 7°C
Dew Point: 41°F , 5°C
Humidity: 87%
Barometer: 29.68 inHg , 1005.1 hPa
Clouds: Clear
Visibility: 10 miles , 16 km
2019/11/12 09:53 KSMQ 120953Z AUTO 00000KT 10SM CLR 07/05 A2968 RMK AO2 SLP052 T00670050 $
 
KLNS - Lancaster, Pennsylvania, USA
Distance from station: SSW 79mi, 127km
Updated: Tue, 12-Nov-2019 4:53am EST
Light rain, Overcast
Light rain, Overcast
 Wind from W
Wind: W 9 mph , 15 km/h
Temperature: 52°F , 11°C
Dew Point: 46°F , 8°C
Humidity: 82%
Barometer: 29.74 inHg , 1007.1 hPa
Summary: Light rain
Clouds: Overcast
Visibility: 6 miles , 10 km
Cloud details: Mostly cloudy 3400 ft
Overcast 6000 ft
2019/11/12 09:53 KLNS 120953Z AUTO 28008KT 6SM -RA BKN034 OVC060 11/08 A2974 RMK AO2 SLP071 P0003 T01060078
KELM - Elmira, New York, USA
Distance from station: NW 82mi, 132km
Updated: Tue, 12-Nov-2019 4:53am EST
Light snow, Overcast
Light snow, Overcast
 Wind from NW
Wind: NW 7 mph , 11 km/h
Temperature: 28°F , -2°C
Wind Chill: 21°F , -6°C
Dew Point: 21°F , -6°C
Humidity: 74%
Barometer: 29.88 inHg , 1011.9 hPa
Summary: Light Snow
Clouds: Overcast
Visibility: 4 miles , 6 km
Cloud details: Overcast 4400 ft
2019/11/12 09:53 KELM 120953Z AUTO 31006KT 4SM -SN OVC044 M02/M06 A2988 RMK AO2 SLP129 P0000 T10221061
 
KLOM - Philly Wings F, Pennsylvania, USA
Distance from station: SSE 82mi, 132km
Updated: Tue, 12-Nov-2019 5:35am EST
Light rain, Overcast
Light rain, Overcast
 Wind from WSW
Wind: WSW 6 mph , 9 km/h
Temperature: 52°F , 11°C
Dew Point: 46°F , 8°C
Humidity: 82%
Barometer: 29.74 inHg , 1007.1 hPa
Summary: Light rain
Clouds: Overcast
Visibility: 10 miles , 16 km
Cloud details: Overcast 7000 ft
2019/11/12 10:35 KLOM 121035Z AUTO 25005KT 10SM -RA OVC070 11/08 A2974 RMK AO2 T01100079
KMMU - Morristown Muni, New Jersey, USA
Distance from station: ESE 83mi, 134km
Updated: Tue, 12-Nov-2019 5:35am EST
Mostly cloudy
Mostly cloudy
 Wind from calm
Wind: Calm
Temperature: 43°F , 6°C
Dew Point: 43°F , 6°C
Humidity: 100%
Clouds: Mostly cloudy
Visibility: 10 miles , 16 km
Cloud details: Mostly cloudy 9000 ft
Mostly cloudy 12000 ft
2019/11/12 10:35 KMMU 121035Z AUTO 00000KT 10SM BKN090 BKN120 06/06 A29

Metar display script from Saratoga-Weather.org


Cairn Terrier Rescue
teddybearweather.com 2009-2018